Cluj-Napoca, Romania
Current Conditions -  °F | °C
As of 2:00 PM on Sunday 23 Nov 2014 (Local Time) from LRCL Reporting Station
Broken Clouds Broken Clouds  
Wind Chill: 43°   Ceiling: 4300
Heat Index: 43°   Visibility: 6mi
Dew Point: 28°   Wind: 2mph
Humidity: 57%   Direction: NA
Pressure: 30.39"   Gusts: NA
Location:  46.78°N, 23.59°E
Report Text: LRCL 231100Z VRB02KT 9999 SCT033 BKN043 06/M02 Q1029
Loading
Personal Weather Stations






























Interactive Weather Map New forecast layout! Learn more

10-Day Weather Forecast

Advertisements
Track Severe Weather on mobile